Flight Track Log - Related Links

Times and Time Zones

All times are in EDT time to prevent confusion due to time zone crossing. See the N48FH flight status page for this flight to view local times or setup timezone preferences in your user account.

Time Position Orientation Groundspeed Altitude Reporting Facility
EDT Latitude Longitude Course Direction KTS MPH feet Rate Location/Type
Sun 10:17:37 AM 30.3100 -104.0133 108° East 74 85 7,600  Level Houston Center
Sun 10:18:31 AM 30.3017 -103.9839 108° East 120 138 8,200 522 Climbing Albuquerque Center
Sun 10:19:32 AM 30.2967 -103.9483 99° East 114 131 8,600 293 Climbing Albuquerque Center
Sun 10:20:34 AM 30.2900 -103.9100 101° East 116 133 8,800 98 Climbing Albuquerque Center
Sun 10:21:35 AM 30.2825 -103.8681 102° East 125 144 8,800  Level Albuquerque Center
Sun 10:22:36 AM 30.2750 -103.8217 101° East 136 157 8,800  Level Albuquerque Center
Sun 10:23:38 AM 30.2667 -103.7661 100° East 145 167 8,800  Level Albuquerque Center
Sun 10:24:39 AM 30.2594 -103.7211 101° East 145 167 8,800  Level Albuquerque Center
Sun 10:25:41 AM 30.2522 -103.6744 100° East 145 167 8,800  Level Albuquerque Center
Sun 10:26:42 AM 30.2436 -103.6253 101° East 149 171 8,800  Level Albuquerque Center
Sun 10:27:44 AM 30.2367 -103.5786 100° East 149 171 8,800  Level Albuquerque Center
Sun 10:28:45 AM 30.2294 -103.5322 100° East 147 169 8,800  Level Albuquerque Center
Sun 10:29:47 AM 30.2225 -103.4867 100° East 146 168 8,800  Level Albuquerque Center
Sun 10:30:48 AM 30.2147 -103.4322 99° East 144 166 8,800  Level Albuquerque Center
Sun 10:31:50 AM 30.2083 -103.3872 99° East 144 166 8,800  Level Albuquerque Center
Sun 10:32:52 AM 30.2017 -103.3419 100° East 143 165 8,800  Level Albuquerque Center
Sun 10:33:53 AM 30.1925 -103.2975 103° East 142 163 8,800  Level Albuquerque Center
Sun 10:34:55 AM 30.1847 -103.2514 101° East 145 167 8,800  Level Albuquerque Center
Sun 10:35:56 AM 30.1778 -103.2064 100° East 144 166 8,800  Level Albuquerque Center
Sun 10:36:58 AM 30.1708 -103.1619 100° East 143 165 8,800  Level Albuquerque Center
Sun 10:38:00 AM 30.1622 -103.1069 100° East 144 166 8,800  Level Albuquerque Center
Sun 10:39:01 AM 30.1556 -103.0606 99° East 145 167 8,800  Level Albuquerque Center
Sun 10:40:03 AM 30.1475 -103.0161 102° East 144 166 8,800  Level Albuquerque Center
Sun 10:41:05 AM 30.1406 -102.9711 100° East 144 166 8,800  Level Albuquerque Center
Sun 10:42:06 AM 30.1325 -102.9272 102° East 142 163 8,800  Level Albuquerque Center
Sun 10:43:08 AM 30.1256 -102.8822 100° East 142 163 8,800  Level Albuquerque Center
Sun 10:44:10 AM 30.1192 -102.8378 99° East 143 165 8,800  Level Albuquerque Center
Sun 10:45:12 AM 30.1108 -102.7856 100° East 139 160 8,800  Level Albuquerque Center
Sun 10:46:13 AM 30.1031 -102.7425 102° East 139 160 8,800  Level Albuquerque Center
Sun 10:47:15 AM 30.0950 -102.6981 102° East 139 160 8,800  Level Albuquerque Center
Sun 10:48:17 AM 30.0881 -102.6547 100° East 140 161 8,800  Level Albuquerque Center
Sun 10:49:18 AM 30.0803 -102.6106 101° East 140 161 8,800  Level Albuquerque Center
Sun 10:50:20 AM 30.0733 -102.5675 101° East 139 160 8,800 48 Level Albuquerque Center
Sun 10:51:22 AM 30.0667 -102.5236 100° East 139 160 8,900 97 Climbing Albuquerque Center
Sun 10:52:24 AM 30.0567 -102.4725 103° East 138 159 9,000 49 Climbing Albuquerque Center
Sun 10:53:25 AM 30.0489 -102.4289 102° East 138 159 9,000  Level Albuquerque Center
Sun 10:54:27 AM 30.0411 -102.3850 102° East 139 160 9,000  Level Albuquerque Center
Sun 10:55:29 AM 30.0322 -102.3408 103° East 140 161 9,000  Level Albuquerque Center
Sun 10:56:31 AM 30.0250 -102.2972 101° East 139 160 9,000  Level Albuquerque Center
Sun 10:57:33 AM 30.0181 -102.2533 100° East 139 160 9,000  Level Albuquerque Center
Sun 10:58:34 AM 30.0106 -102.2114 102° East 138 159 9,000  Level Albuquerque Center
Sun 10:59:36 AM 30.0008 -102.1611 103° East 136 157 9,000  Level Albuquerque Center
Sun 11:00:38 AM 29.9933 -102.1192 102° East 135 155 9,000  Level Albuquerque Center
Sun 11:01:40 AM 29.9869 -102.0772 100° East 134 154 9,000  Level Albuquerque Center
Sun 11:02:42 AM 29.9794 -102.0361 102° East 134 154 9,000 -43 Level Albuquerque Center
Sun 11:04:00 AM 29.9700 -101.9817 101° East 132 152 8,900 -43 Descending Houston Center
Sun 11:05:02 AM 29.9631 -101.9389 101° East 134 154 8,900  Level Houston Center
Sun 11:06:04 AM 29.9547 -101.8889 101° East 134 154 8,900  Level Houston Center
Sun 11:07:06 AM 29.9478 -101.8483 101° East 132 152 8,900  Level Houston Center
Sun 11:08:08 AM 29.9392 -101.8072 104° East 131 151 8,900  Level Houston Center
Sun 11:09:10 AM 29.9317 -101.7664 102° East 131 151 8,900  Level Houston Center
Sun 11:10:12 AM 29.9244 -101.7256 102° East 131 151 8,900  Level Houston Center
Sun 11:11:14 AM 29.9183 -101.6847 100° East 130 150 8,900  Level Houston Center
Sun 11:12:16 AM 29.9100 -101.6433 103° East 131 151 8,900  Level Houston Center
Sun 11:13:18 AM 29.9003 -101.5925 102° East 133 153 8,900  Level Houston Center
Sun 11:14:20 AM 29.8933 -101.5511 101° East 133 153 8,900  Level Houston Center
Sun 11:15:22 AM 29.8869 -101.5103 100° East 132 152 8,900  Level Houston Center
Sun 11:16:24 AM 29.8794 -101.4689 102° East 132 152 8,900  Level Houston Center
Sun 11:17:25 AM 29.8711 -101.4272 103° East 132 152 8,900  Level Houston Center
Sun 11:18:27 AM 29.8553 -101.3894 116° Southeast 132 152 8,900  Level Houston Center
Sun 11:19:30 AM 29.8339 -101.3450 119° Southeast 132 152 8,900  Level Houston Center
Sun 11:20:31 AM 29.8206 -101.3064 112° Southeast 132 152 8,900  Level Houston Center
Sun 11:21:33 AM 29.8050 -101.2678 115° Southeast 133 153 8,900  Level Houston Center
Sun 11:22:35 AM 29.7894 -101.2294 115° Southeast 133 153 8,900  Level Houston Center
Sun 11:23:37 AM 29.7744 -101.1908 114° Southeast 132 152 8,900  Level Houston Center
Sun 11:24:39 AM 29.7594 -101.1517 114° Southeast 133 153 8,900  Level Houston Center
Sun 11:25:41 AM 29.7397 -101.1053 116° Southeast 133 153 8,900  Level Houston Center
Sun 11:26:43 AM 29.7236 -101.0658 115° Southeast 135 155 8,900  Level Houston Center
Sun 11:27:45 AM 29.7081 -101.0269 115° Southeast 135 155 8,900  Level Houston Center
Sun 11:28:47 AM 29.6925 -100.9878 115° Southeast 135 155 8,900  Level Houston Center
Sun 11:29:49 AM 29.6772 -100.9489 114° Southeast 135 155 8,900  Level Houston Center
Sun 11:30:51 AM 29.6589 -100.9028 115° Southeast 133 153 8,900  Level Houston Center
Sun 11:31:53 AM 29.6428 -100.8636 115° Southeast 134 154 8,900  Level Houston Center
Sun 11:32:55 AM 29.6267 -100.8236 115° Southeast 136 157 8,900  Level Houston Center
Sun 11:33:57 AM 29.6100 -100.7850 116° Southeast 137 158 8,900  Level Houston Center
Sun 11:34:59 AM 29.5936 -100.7456 116° Southeast 137 158 8,900  Level Houston Center
Sun 11:36:02 AM 29.5792 -100.7047 112° Southeast 138 159 8,900  Level Houston Center
Sun 11:37:04 AM 29.5592 -100.6589 117° Southeast 136 157 8,900  Level Houston Center
Sun 11:38:06 AM 29.5433 -100.6183 114° Southeast 138 159 8,900  Level Houston Center
Sun 11:39:08 AM 29.5275 -100.5797 115° Southeast 137 158 8,900  Level Houston Center
Sun 11:40:10 AM 29.5106 -100.5403 116° Southeast 137 158 8,900  Level Houston Center
Sun 11:41:12 AM 29.4953 -100.5011 114° Southeast 137 158 8,900  Level Houston Center
Sun 11:42:14 AM 29.4764 -100.4536 115° Southeast 137 158 8,900  Level Houston Center
Sun 11:43:16 AM 29.4597 -100.4147 116° Southeast 136 157 8,900  Level Houston Center
Sun 11:44:18 AM 29.4444 -100.3733 113° Southeast 139 160 8,900  Level Houston Center
Sun 11:45:20 AM 29.4272 -100.3350 117° Southeast 137 158 8,900  Level Houston Center
Sun 11:46:22 AM 29.4117 -100.2958 115° Southeast 136 157 8,900  Level Houston Center
Sun 11:47:25 AM 29.3953 -100.2544 114° Southeast 141 162 8,900  Level Houston Center
Sun 11:48:27 AM 29.3756 -100.2078 116° Southeast 138 159 8,900  Level Houston Center
Sun 11:49:29 AM 29.3594 -100.1675 115° Southeast 138 159 8,900  Level Houston Center
Sun 11:50:31 AM 29.3425 -100.1261 115° Southeast 143 165 8,900  Level Houston Center
Sun 11:51:33 AM 29.3256 -100.0864 116° Southeast 141 162 8,900  Level Houston Center
Sun 11:52:35 AM 29.3100 -100.0453 113° Southeast 141 162 8,900  Level Houston Center
Sun 11:53:37 AM 29.2883 -99.9961 117° Southeast 145 167 8,900  Level Houston Center
Sun 11:54:39 AM 29.2708 -99.9561 117° Southeast 144 166 8,900  Level Houston Center
Sun 11:55:41 AM 29.2561 -99.9147 112° Southeast 142 163 8,900 48 Level Houston Center
Sun 11:56:43 AM 29.2400 -99.8761 116° Southeast 138 159 9,000  Climbing Houston Center
Sun 11:57:46 AM 29.2222 -99.8367 117° Southeast 140 161 8,900  Descending Houston Center
Sun 11:58:48 AM 29.2044 -99.7972 117° Southeast 139 160 9,000 48 Climbing Houston Center
Sun 11:59:50 AM 29.1861 -99.7489 113° Southeast 138 159 9,000  Level Houston Center
Sun 12:00:52 PM 29.1694 -99.7072 115° Southeast 140 161 9,000 -48 Level Houston Center
Sun 12:01:54 PM 29.1511 -99.6675 118° Southeast 142 163 8,900  Descending Houston Center
Sun 12:02:56 PM 29.1358 -99.6275 114° Southeast 140 161 9,000 48 Climbing Houston Center
Sun 12:03:58 PM 29.1192 -99.5861 115° Southeast 141 162 9,000  Level Houston Center
Sun 12:05:00 PM 29.0975 -99.5375 117° Southeast 142 163 9,000 -48 Level Houston Center
Sun 12:06:02 PM 29.0811 -99.4961 114° Southeast 142 163 8,900  Descending Houston Center
Sun 12:07:04 PM 29.0642 -99.4558 116° Southeast 142 163 9,000 48 Climbing Houston Center
Sun 12:08:06 PM 29.0469 -99.4156 116° Southeast 142 163 9,000  Level Houston Center
Sun 12:09:09 PM 29.0294 -99.3772 118° Southeast 140 161 9,000 -48 Level Houston Center
Sun 12:10:11 PM 29.0133 -99.3347 113° Southeast 141 162 8,900  Descending Houston Center
Sun 12:11:13 PM 28.9922 -99.2869 117° Southeast 143 165 9,000 48 Climbing Houston Center
Sun 12:12:15 PM 28.9733 -99.2425 116° Southeast 145 167 9,000  Level Houston Center
Sun 12:13:17 PM 28.9569 -99.2019 115° Southeast 141 162 9,000 -48 Level Houston Center
Sun 12:14:19 PM 28.9375 -99.1578 117° Southeast 144 166 8,900 -48 Descending Houston Center
Sun 12:15:21 PM 28.9228 -99.1233 116° Southeast 140 161 8,900 48 Level Houston Center
Sun 12:16:23 PM 28.9053 -99.0828 116° Southeast 141 162 9,000 48 Climbing Houston Center
Sun 12:17:25 PM 28.8844 -99.0350 116° Southeast 140 161 9,000 -48 Level Houston Center
Sun 12:18:27 PM 28.8683 -98.9944 114° Southeast 140 161 8,900  Descending Houston Center
Sun 12:19:29 PM 28.8500 -98.9514 116° Southeast 140 161 9,000 48 Climbing Houston Center
Sun 12:20:32 PM 28.8336 -98.9108 115° Southeast 142 163 9,000  Level Houston Center
Sun 12:21:34 PM 28.8147 -98.8689 117° Southeast 140 161 9,000  Level Houston Center
Sun 12:22:36 PM 28.7992 -98.8286 114° Southeast 140 161 9,000  Level Houston Center
Sun 12:23:38 PM 28.7800 -98.7858 117° Southeast 141 162 9,000  Level Houston Center
Sun 12:24:40 PM 28.7631 -98.7456 116° Southeast 141 162 9,000  Level Houston Center
Sun 12:25:42 PM 28.7444 -98.7019 116° Southeast 144 166 9,000  Level Houston Center
Sun 12:26:44 PM 28.7269 -98.6625 117° Southeast 141 162 9,000  Level Houston Center
Sun 12:27:46 PM 28.7089 -98.6208 116° Southeast 137 158 9,000 -48 Level Houston Center
Sun 12:28:48 PM 28.6944 -98.5864 116° Southeast 139 160 8,900  Descending Houston Center
Sun 12:29:50 PM 28.6742 -98.5392 116° Southeast 140 161 9,000  Climbing Houston Center
Sun 12:30:52 PM 28.6550 -98.4981 118° Southeast 142 163 8,900  Descending Houston Center
Sun 12:31:55 PM 28.6383 -98.4589 116° Southeast 140 161 9,000 48 Climbing Houston Center
Sun 12:32:57 PM 28.6219 -98.4197 115° Southeast 138 159 9,000 -48 Level Houston Center
Sun 12:33:59 PM 28.6042 -98.3783 116° Southeast 136 157 8,900  Descending Houston Center
Sun 12:35:01 PM 28.5875 -98.3394 116° Southeast 137 158 9,000 48 Climbing Houston Center
Sun 12:36:03 PM 28.5703 -98.2997 116° Southeast 139 160 9,000  Level Houston Center
Sun 12:37:05 PM 28.5533 -98.2606 116° Southeast 139 160 9,000  Level Houston Center
Sun 12:38:07 PM 28.5328 -98.2139 117° Southeast 138 159 9,000  Level Houston Center
Sun 12:39:09 PM 28.5161 -98.1744 116° Southeast 138 159 9,000  Level Houston Center
Sun 12:40:11 PM 28.4958 -98.1369 122° Southeast 139 160 9,000 -97 Level Houston Center
Sun 12:41:13 PM 28.4650 -98.1044 137° Southeast 146 168 8,800 -303 Descending Houston Center
Sun 12:41:50 PM 28.4394 -98.0867 149° Southeast 166 191 8,500 -424 Descending Houston Center
Sun 12:42:38 PM 28.4117 -98.0617 142° Southeast 168 193 8,200 -341 Descending Houston Center
Sun 12:43:18 PM 28.3931 -98.0444 141° Southeast 160 184 8,000 -353 Descending Houston Center
Sun 12:44:20 PM 28.3492 -98.0058 142° Southeast 164 189 7,600 -339 Descending Houston Center
Sun 12:45:22 PM 28.3142 -97.9772 144° Southeast 160 184 7,300 -339 Descending Houston Center
Sun 12:46:24 PM 28.2783 -97.9450 142° Southeast 162 186 6,900 -339 Descending Houston Center
Sun 12:47:26 PM 28.2422 -97.9144 143° Southeast 162 186 6,600 -290 Descending Houston Center
Sun 12:48:28 PM 28.2081 -97.8853 143° Southeast 158 182 6,300 -339 Descending Houston Center
Sun 12:49:30 PM 28.1678 -97.8528 145° Southeast 156 180 5,900 -339 Descending Houston Center
Sun 12:50:32 PM 28.1328 -97.8250 145° Southeast 155 178 5,600 -336 Descending Houston Center
Sun 12:51:35 PM 28.0997 -97.7964 143° Southeast 153 176 5,200 -432 Descending Houston Center
Sun 12:52:37 PM 28.0669 -97.7681 143° Southeast 151 174 4,700 -484 Descending Houston Center
Sun 12:53:39 PM 28.0314 -97.7378 143° Southeast 151 174 4,200 -412 Descending Houston Center
Sun 12:54:48 PM 27.9894 -97.7075 147° Southeast 147 169 3,800 -387 Descending Houston Center
Sun 12:55:43 PM 27.9547 -97.6803 145° Southeast 154 177 3,400 -359 Descending Houston Center
Sun 12:56:45 PM 27.9181 -97.6567 150° Southeast 153 176 3,100 -145 Descending Houston Center
Sun 12:57:47 PM 27.8833 -97.6356 152° Southeast 152 175 3,100 -381 Level Houston Center
Sun 12:58:51 PM 27.8489 -97.5939 133° Southeast 154 177 2,300 -814 Descending Houston Center
Sun 12:59:45 PM 27.8247 -97.5664 135° Southeast 135 155 1,500 -803 Descending Houston Center
Sun 01:00:58 PM 27.7942 -97.5353 138° Southeast 115 132 600 -740 Descending Houston Center
Sun 01:02:00 PM 27.7667 -97.5000 156° South  Level FlightAware Approximate
Sun 01:09:00 PM 27.7704 -97.5012 156° South  Level Estimated

Login

Don't have an account? Register now (free) for customized features, flight alerts, and more!